sensor_id;sensor_type;location;lat;lon;timestamp;P1;durP1;ratioP1;P2;durP2;ratioP2
46781;SDS011;32541;46.298;11.506;2023-03-16T00:01:37;1.77;;;0.63;;
46781;SDS011;32541;46.298;11.506;2023-03-16T00:04:02;4.60;;;1.20;;
46781;SDS011;32541;46.298;11.506;2023-03-16T00:06:28;34.30;;;15.43;;
46781;SDS011;32541;46.298;11.506;2023-03-16T00:08:53;39.93;;;17.37;;
46781;SDS011;32541;46.298;11.506;2023-03-16T00:11:23;41.93;;;22.10;;
46781;SDS011;32541;46.298;11.506;2023-03-16T00:13:49;14.00;;;8.27;;
46781;SDS011;32541;46.298;11.506;2023-03-16T00:16:15;6.93;;;4.90;;
46781;SDS011;32541;46.298;11.506;2023-03-16T00:18:41;2.50;;;2.10;;
46781;SDS011;32541;46.298;11.506;2023-03-16T00:21:06;4.77;;;4.37;;
46781;SDS011;32541;46.298;11.506;2023-03-16T00:23:32;4.10;;;3.00;;
46781;SDS011;32541;46.298;11.506;2023-03-16T00:26:00;6.23;;;2.50;;
46781;SDS011;32541;46.298;11.506;2023-03-16T00:28:28;3.07;;;1.93;;
46781;SDS011;32541;46.298;11.506;2023-03-16T00:31:02;5.17;;;2.20;;
46781;SDS011;32541;46.298;11.506;2023-03-16T00:33:29;3.37;;;1.13;;
46781;SDS011;32541;46.298;11.506;2023-03-16T00:35:59;6.30;;;1.80;;
46781;SDS011;32541;46.298;11.506;2023-03-16T00:38:33;3.20;;;0.80;;
46781;SDS011;32541;46.298;11.506;2023-03-16T00:41:04;3.40;;;1.27;;
46781;SDS011;32541;46.298;11.506;2023-03-16T00:43:32;9.07;;;3.20;;
46781;SDS011;32541;46.298;11.506;2023-03-16T00:46:09;11.37;;;3.40;;
46781;SDS011;32541;46.298;11.506;2023-03-16T00:48:39;4.53;;;1.70;;
46781;SDS011;32541;46.298;11.506;2023-03-16T00:51:07;3.97;;;1.43;;
46781;SDS011;32541;46.298;11.506;2023-03-16T00:53:37;2.77;;;0.90;;
46781;SDS011;32541;46.298;11.506;2023-03-16T00:56:03;0.63;;;0.30;;
46781;SDS011;32541;46.298;11.506;2023-03-16T00:58:33;1.20;;;0.47;;
46781;SDS011;32541;46.298;11.506;2023-03-16T01:01:00;3.00;;;0.67;;
46781;SDS011;32541;46.298;11.506;2023-03-16T01:03:35;5.17;;;1.00;;
46781;SDS011;32541;46.298;11.506;2023-03-16T01:06:06;3.67;;;1.23;;
46781;SDS011;32541;46.298;11.506;2023-03-16T01:08:34;2.63;;;0.60;;
46781;SDS011;32541;46.298;11.506;2023-03-16T01:11:03;0.97;;;0.40;;
46781;SDS011;32541;46.298;11.506;2023-03-16T01:13:31;3.63;;;0.70;;
46781;SDS011;32541;46.298;11.506;2023-03-16T01:15:57;2.77;;;0.53;;
46781;SDS011;32541;46.298;11.506;2023-03-16T01:18:23;0.33;;;0.27;;
46781;SDS011;32541;46.298;11.506;2023-03-16T01:20:49;8.60;;;1.77;;
46781;SDS011;32541;46.298;11.506;2023-03-16T01:23:18;4.07;;;1.33;;
46781;SDS011;32541;46.298;11.506;2023-03-16T01:25:44;0.90;;;0.53;;
46781;SDS011;32541;46.298;11.506;2023-03-16T01:28:17;3.97;;;0.80;;
46781;SDS011;32541;46.298;11.506;2023-03-16T01:30:48;2.10;;;0.77;;
46781;SDS011;32541;46.298;11.506;2023-03-16T01:33:19;6.93;;;1.80;;
46781;SDS011;32541;46.298;11.506;2023-03-16T01:35:52;2.43;;;0.87;;
46781;SDS011;32541;46.298;11.506;2023-03-16T01:38:19;3.53;;;1.23;;
46781;SDS011;32541;46.298;11.506;2023-03-16T01:40:44;1.90;;;0.83;;
46781;SDS011;32541;46.298;11.506;2023-03-16T01:43:09;2.47;;;1.20;;
46781;SDS011;32541;46.298;11.506;2023-03-16T01:48:51;2.17;;;0.52;;
46781;SDS011;32541;46.298;11.506;2023-03-16T01:56:57;0.63;;;0.27;;
46781;SDS011;32541;46.298;11.506;2023-03-16T01:59:32;1.33;;;0.20;;
46781;SDS011;32541;46.298;11.506;2023-03-16T02:02:01;0.40;;;0.10;;
46781;SDS011;32541;46.298;11.506;2023-03-16T02:07:28;2.10;;;0.53;;
46781;SDS011;32541;46.298;11.506;2023-03-16T02:09:58;1.20;;;0.30;;
46781;SDS011;32541;46.298;11.506;2023-03-16T02:12:26;0.97;;;0.50;;
46781;SDS011;32541;46.298;11.506;2023-03-16T02:14:53;1.00;;;0.40;;
46781;SDS011;32541;46.298;11.506;2023-03-16T02:17:19;2.73;;;0.50;;
46781;SDS011;32541;46.298;11.506;2023-03-16T02:19:59;3.13;;;0.50;;
46781;SDS011;32541;46.298;11.506;2023-03-16T02:22:38;1.23;;;0.33;;
46781;SDS011;32541;46.298;11.506;2023-03-16T02:25:08;0.70;;;0.40;;
46781;SDS011;32541;46.298;11.506;2023-03-16T02:30:24;0.57;;;0.30;;
46781;SDS011;32541;46.298;11.506;2023-03-16T02:32:51;1.90;;;0.27;;
46781;SDS011;32541;46.298;11.506;2023-03-16T02:35:17;1.77;;;0.47;;
46781;SDS011;32541;46.298;11.506;2023-03-16T02:37:43;2.27;;;0.50;;
46781;SDS011;32541;46.298;11.506;2023-03-16T02:40:22;0.83;;;0.37;;
46781;SDS011;32541;46.298;11.506;2023-03-16T02:45:23;1.13;;;0.30;;
46781;SDS011;32541;46.298;11.506;2023-03-16T02:47:52;0.33;;;0.30;;
46781;SDS011;32541;46.298;11.506;2023-03-16T02:50:19;0.50;;;0.20;;
46781;SDS011;32541;46.298;11.506;2023-03-16T02:52:44;2.17;;;0.50;;
46781;SDS011;32541;46.298;11.506;2023-03-16T02:55:12;0.60;;;0.30;;
46781;SDS011;32541;46.298;11.506;2023-03-16T02:57:37;0.37;;;0.27;;
46781;SDS011;32541;46.298;11.506;2023-03-16T03:00:03;0.30;;;0.20;;
46781;SDS011;32541;46.298;11.506;2023-03-16T03:02:43;0.93;;;0.30;;
46781;SDS011;32541;46.298;11.506;2023-03-16T03:05:09;2.73;;;0.30;;
46781;SDS011;32541;46.298;11.506;2023-03-16T03:07:36;0.17;;;0.17;;
46781;SDS011;32541;46.298;11.506;2023-03-16T03:10:02;0.97;;;0.30;;
46781;SDS011;32541;46.298;11.506;2023-03-16T03:12:30;0.77;;;0.33;;
46781;SDS011;32541;46.298;11.506;2023-03-16T03:14:56;0.20;;;0.20;;
46781;SDS011;32541;46.298;11.506;2023-03-16T03:17:21;1.47;;;0.20;;
46781;SDS011;32541;46.298;11.506;2023-03-16T03:19:53;1.00;;;0.37;;
46781;SDS011;32541;46.298;11.506;2023-03-16T03:22:20;1.17;;;0.30;;
46781;SDS011;32541;46.298;11.506;2023-03-16T03:24:45;1.40;;;0.40;;
46781;SDS011;32541;46.298;11.506;2023-03-16T03:27:11;0.87;;;0.27;;
46781;SDS011;32541;46.298;11.506;2023-03-16T03:29:36;0.27;;;0.20;;
46781;SDS011;32541;46.298;11.506;2023-03-16T03:32:03;0.60;;;0.23;;
46781;SDS011;32541;46.298;11.506;2023-03-16T03:34:29;0.20;;;0.20;;
46781;SDS011;32541;46.298;11.506;2023-03-16T03:36:55;1.63;;;0.10;;
46781;SDS011;32541;46.298;11.506;2023-03-16T03:39:21;0.20;;;0.10;;
46781;SDS011;32541;46.298;11.506;2023-03-16T03:41:47;0.30;;;0.20;;
46781;SDS011;32541;46.298;11.506;2023-03-16T03:44:12;0.93;;;0.30;;
46781;SDS011;32541;46.298;11.506;2023-03-16T03:46:38;3.33;;;0.30;;
46781;SDS011;32541;46.298;11.506;2023-03-16T03:49:03;0.70;;;0.30;;
46781;SDS011;32541;46.298;11.506;2023-03-16T03:51:29;3.90;;;1.73;;
46781;SDS011;32541;46.298;11.506;2023-03-16T03:53:56;2.83;;;1.00;;
46781;SDS011;32541;46.298;11.506;2023-03-16T03:56:22;0.30;;;0.30;;
46781;SDS011;32541;46.298;11.506;2023-03-16T03:58:47;2.53;;;2.27;;
46781;SDS011;32541;46.298;11.506;2023-03-16T04:01:13;0.70;;;0.60;;
46781;SDS011;32541;46.298;11.506;2023-03-16T04:03:38;0.53;;;0.40;;
46781;SDS011;32541;46.298;11.506;2023-03-16T04:06:03;0.67;;;0.40;;
46781;SDS011;32541;46.298;11.506;2023-03-16T04:08:31;1.20;;;0.30;;
46781;SDS011;32541;46.298;11.506;2023-03-16T04:10:56;0.63;;;0.27;;
46781;SDS011;32541;46.298;11.506;2023-03-16T04:13:22;0.20;;;0.20;;
46781;SDS011;32541;46.298;11.506;2023-03-16T04:15:47;0.40;;;0.20;;
46781;SDS011;32541;46.298;11.506;2023-03-16T04:18:12;1.90;;;0.30;;
46781;SDS011;32541;46.298;11.506;2023-03-16T04:20:38;0.30;;;0.20;;
46781;SDS011;32541;46.298;11.506;2023-03-16T04:23:03;0.40;;;0.20;;
46781;SDS011;32541;46.298;11.506;2023-03-16T04:25:29;2.03;;;0.40;;
46781;SDS011;32541;46.298;11.506;2023-03-16T04:27:55;0.63;;;0.20;;
46781;SDS011;32541;46.298;11.506;2023-03-16T04:30:20;0.00;;;0.00;;
46781;SDS011;32541;46.298;11.506;2023-03-16T04:32:49;0.50;;;0.30;;
46781;SDS011;32541;46.298;11.506;2023-03-16T04:35:16;0.40;;;0.30;;
46781;SDS011;32541;46.298;11.506;2023-03-16T04:37:41;0.30;;;0.13;;
46781;SDS011;32541;46.298;11.506;2023-03-16T04:40:07;0.60;;;0.30;;
46781;SDS011;32541;46.298;11.506;2023-03-16T04:42:39;0.20;;;0.20;;
46781;SDS011;32541;46.298;11.506;2023-03-16T04:45:05;0.20;;;0.20;;
46781;SDS011;32541;46.298;11.506;2023-03-16T04:47:30;0.67;;;0.30;;
46781;SDS011;32541;46.298;11.506;2023-03-16T04:49:57;0.40;;;0.20;;
46781;SDS011;32541;46.298;11.506;2023-03-16T04:52:24;0.10;;;0.10;;
46781;SDS011;32541;46.298;11.506;2023-03-16T04:54:49;0.63;;;0.33;;
46781;SDS011;32541;46.298;11.506;2023-03-16T04:57:15;0.33;;;0.20;;
46781;SDS011;32541;46.298;11.506;2023-03-16T04:59:43;1.23;;;0.50;;
46781;SDS011;32541;46.298;11.506;2023-03-16T05:02:09;0.10;;;0.10;;
46781;SDS011;32541;46.298;11.506;2023-03-16T05:04:34;1.40;;;0.80;;
46781;SDS011;32541;46.298;11.506;2023-03-16T05:07:00;1.40;;;0.80;;
46781;SDS011;32541;46.298;11.506;2023-03-16T05:09:25;2.77;;;1.73;;
46781;SDS011;32541;46.298;11.506;2023-03-16T05:11:50;0.63;;;0.40;;
46781;SDS011;32541;46.298;11.506;2023-03-16T05:14:16;1.23;;;0.30;;
46781;SDS011;32541;46.298;11.506;2023-03-16T05:16:41;0.47;;;0.30;;
46781;SDS011;32541;46.298;11.506;2023-03-16T05:19:06;0.80;;;0.40;;
46781;SDS011;32541;46.298;11.506;2023-03-16T05:21:32;0.77;;;0.30;;
46781;SDS011;32541;46.298;11.506;2023-03-16T05:23:58;0.73;;;0.40;;
46781;SDS011;32541;46.298;11.506;2023-03-16T05:26:23;1.67;;;0.77;;
46781;SDS011;32541;46.298;11.506;2023-03-16T05:28:49;2.07;;;0.80;;
46781;SDS011;32541;46.298;11.506;2023-03-16T05:31:15;1.10;;;0.50;;
46781;SDS011;32541;46.298;11.506;2023-03-16T05:33:41;2.47;;;0.57;;
46781;SDS011;32541;46.298;11.506;2023-03-16T05:36:07;3.30;;;1.30;;
46781;SDS011;32541;46.298;11.506;2023-03-16T05:38:32;1.27;;;0.60;;
46781;SDS011;32541;46.298;11.506;2023-03-16T05:41:00;1.27;;;0.40;;
46781;SDS011;32541;46.298;11.506;2023-03-16T05:43:28;2.43;;;1.23;;
46781;SDS011;32541;46.298;11.506;2023-03-16T05:45:54;2.60;;;1.00;;
46781;SDS011;32541;46.298;11.506;2023-03-16T05:48:20;6.67;;;2.83;;
46781;SDS011;32541;46.298;11.506;2023-03-16T05:50:45;7.57;;;2.43;;
46781;SDS011;32541;46.298;11.506;2023-03-16T05:53:11;3.40;;;0.77;;
46781;SDS011;32541;46.298;11.506;2023-03-16T05:55:37;190.83;;;86.57;;
46781;SDS011;32541;46.298;11.506;2023-03-16T05:58:03;19.80;;;10.57;;
46781;SDS011;32541;46.298;11.506;2023-03-16T06:00:28;4.80;;;1.63;;
46781;SDS011;32541;46.298;11.506;2023-03-16T06:02:54;2.37;;;0.70;;
46781;SDS011;32541;46.298;11.506;2023-03-16T06:05:20;2.20;;;0.60;;
46781;SDS011;32541;46.298;11.506;2023-03-16T06:07:47;2.23;;;0.87;;
46781;SDS011;32541;46.298;11.506;2023-03-16T06:10:12;12.37;;;6.60;;
46781;SDS011;32541;46.298;11.506;2023-03-16T06:12:38;32.57;;;14.83;;
46781;SDS011;32541;46.298;11.506;2023-03-16T06:15:05;55.97;;;22.37;;
46781;SDS011;32541;46.298;11.506;2023-03-16T06:17:31;96.70;;;39.67;;
46781;SDS011;32541;46.298;11.506;2023-03-16T06:19:57;167.07;;;67.73;;
46781;SDS011;32541;46.298;11.506;2023-03-16T06:22:23;178.30;;;70.07;;
46781;SDS011;32541;46.298;11.506;2023-03-16T06:24:49;205.90;;;93.97;;
46781;SDS011;32541;46.298;11.506;2023-03-16T06:27:15;80.20;;;40.23;;
46781;SDS011;32541;46.298;11.506;2023-03-16T06:29:40;12.90;;;7.07;;
46781;SDS011;32541;46.298;11.506;2023-03-16T06:32:06;3.97;;;1.97;;
46781;SDS011;32541;46.298;11.506;2023-03-16T06:34:31;2.77;;;1.60;;
46781;SDS011;32541;46.298;11.506;2023-03-16T06:36:58;11.80;;;6.03;;
46781;SDS011;32541;46.298;11.506;2023-03-16T06:39:23;12.37;;;4.47;;
46781;SDS011;32541;46.298;11.506;2023-03-16T06:41:48;8.73;;;4.17;;
46781;SDS011;32541;46.298;11.506;2023-03-16T06:44:14;7.40;;;4.03;;
46781;SDS011;32541;46.298;11.506;2023-03-16T06:46:39;15.07;;;6.40;;
46781;SDS011;32541;46.298;11.506;2023-03-16T06:49:05;23.33;;;10.17;;
46781;SDS011;32541;46.298;11.506;2023-03-16T06:51:31;24.00;;;10.87;;
46781;SDS011;32541;46.298;11.506;2023-03-16T06:53:56;31.40;;;15.23;;
46781;SDS011;32541;46.298;11.506;2023-03-16T06:56:22;95.57;;;43.10;;
46781;SDS011;32541;46.298;11.506;2023-03-16T06:58:48;119.00;;;48.47;;
46781;SDS011;32541;46.298;11.506;2023-03-16T07:01:13;41.70;;;19.87;;
46781;SDS011;32541;46.298;11.506;2023-03-16T07:03:38;21.37;;;9.83;;
46781;SDS011;32541;46.298;11.506;2023-03-16T07:06:04;10.10;;;5.30;;
46781;SDS011;32541;46.298;11.506;2023-03-16T07:08:30;3.97;;;2.37;;
46781;SDS011;32541;46.298;11.506;2023-03-16T07:10:56;2.40;;;1.20;;
46781;SDS011;32541;46.298;11.506;2023-03-16T07:13:21;1.70;;;1.17;;
46781;SDS011;32541;46.298;11.506;2023-03-16T07:15:51;1.70;;;0.93;;
46781;SDS011;32541;46.298;11.506;2023-03-16T07:18:17;2.17;;;1.10;;
46781;SDS011;32541;46.298;11.506;2023-03-16T07:20:43;1.97;;;0.80;;
46781;SDS011;32541;46.298;11.506;2023-03-16T07:23:08;2.43;;;0.90;;
46781;SDS011;32541;46.298;11.506;2023-03-16T07:25:34;1.00;;;0.50;;
46781;SDS011;32541;46.298;11.506;2023-03-16T07:28:00;2.00;;;0.70;;
46781;SDS011;32541;46.298;11.506;2023-03-16T07:30:26;1.03;;;0.80;;
46781;SDS011;32541;46.298;11.506;2023-03-16T07:32:51;2.60;;;0.80;;
46781;SDS011;32541;46.298;11.506;2023-03-16T07:35:17;1.13;;;0.73;;
46781;SDS011;32541;46.298;11.506;2023-03-16T07:37:42;2.23;;;1.30;;
46781;SDS011;32541;46.298;11.506;2023-03-16T07:40:08;1.97;;;0.83;;
46781;SDS011;32541;46.298;11.506;2023-03-16T07:42:34;5.73;;;0.90;;
46781;SDS011;32541;46.298;11.506;2023-03-16T07:45:00;6.63;;;1.80;;
46781;SDS011;32541;46.298;11.506;2023-03-16T07:47:26;9.10;;;2.10;;
46781;SDS011;32541;46.298;11.506;2023-03-16T07:49:52;2.33;;;1.10;;
46781;SDS011;32541;46.298;11.506;2023-03-16T07:52:17;3.53;;;1.23;;
46781;SDS011;32541;46.298;11.506;2023-03-16T07:54:43;4.10;;;2.20;;
46781;SDS011;32541;46.298;11.506;2023-03-16T07:57:08;3.60;;;2.00;;
46781;SDS011;32541;46.298;11.506;2023-03-16T07:59:34;4.82;;;1.77;;
46781;SDS011;32541;46.298;11.506;2023-03-16T08:01:59;5.55;;;1.63;;
46781;SDS011;32541;46.298;11.506;2023-03-16T08:04:24;2.58;;;1.50;;
46781;SDS011;32541;46.298;11.506;2023-03-16T08:06:50;4.53;;;2.00;;
46781;SDS011;32541;46.298;11.506;2023-03-16T08:09:24;5.90;;;1.83;;
46781;SDS011;32541;46.298;11.506;2023-03-16T08:11:50;3.35;;;1.23;;
46781;SDS011;32541;46.298;11.506;2023-03-16T08:14:15;2.42;;;1.42;;
46781;SDS011;32541;46.298;11.506;2023-03-16T08:16:41;3.10;;;1.27;;
46781;SDS011;32541;46.298;11.506;2023-03-16T08:19:06;4.13;;;2.40;;
46781;SDS011;32541;46.298;11.506;2023-03-16T08:21:32;5.00;;;1.20;;
46781;SDS011;32541;46.298;11.506;2023-03-16T08:23:58;1.25;;;0.57;;
46781;SDS011;32541;46.298;11.506;2023-03-16T08:26:23;3.45;;;0.47;;
46781;SDS011;32541;46.298;11.506;2023-03-16T08:28:50;0.50;;;0.20;;
46781;SDS011;32541;46.298;11.506;2023-03-16T08:31:16;2.22;;;0.57;;
46781;SDS011;32541;46.298;11.506;2023-03-16T08:33:44;2.57;;;0.90;;
46781;SDS011;32541;46.298;11.506;2023-03-16T08:36:11;5.13;;;0.83;;
46781;SDS011;32541;46.298;11.506;2023-03-16T08:38:39;1.27;;;0.87;;
46781;SDS011;32541;46.298;11.506;2023-03-16T08:41:05;1.37;;;0.90;;
46781;SDS011;32541;46.298;11.506;2023-03-16T08:43:31;2.67;;;1.37;;
46781;SDS011;32541;46.298;11.506;2023-03-16T08:45:57;3.37;;;1.07;;
46781;SDS011;32541;46.298;11.506;2023-03-16T08:48:23;4.13;;;1.20;;
46781;SDS011;32541;46.298;11.506;2023-03-16T08:50:49;3.07;;;0.93;;
46781;SDS011;32541;46.298;11.506;2023-03-16T08:53:16;1.10;;;0.60;;
46781;SDS011;32541;46.298;11.506;2023-03-16T08:55:42;1.10;;;0.60;;
46781;SDS011;32541;46.298;11.506;2023-03-16T08:58:09;1.53;;;0.53;;
46781;SDS011;32541;46.298;11.506;2023-03-16T09:00:36;1.93;;;0.70;;
46781;SDS011;32541;46.298;11.506;2023-03-16T09:03:04;1.23;;;0.50;;
46781;SDS011;32541;46.298;11.506;2023-03-16T09:05:29;1.40;;;0.43;;
46781;SDS011;32541;46.298;11.506;2023-03-16T09:07:56;1.77;;;0.73;;
46781;SDS011;32541;46.298;11.506;2023-03-16T09:10:22;1.43;;;0.73;;
46781;SDS011;32541;46.298;11.506;2023-03-16T09:12:48;1.37;;;0.60;;
46781;SDS011;32541;46.298;11.506;2023-03-16T09:15:18;0.93;;;0.50;;
46781;SDS011;32541;46.298;11.506;2023-03-16T09:17:46;1.77;;;0.60;;
46781;SDS011;32541;46.298;11.506;2023-03-16T09:20:13;1.27;;;0.67;;
46781;SDS011;32541;46.298;11.506;2023-03-16T09:22:40;1.77;;;0.60;;
46781;SDS011;32541;46.298;11.506;2023-03-16T09:25:06;2.50;;;0.50;;
46781;SDS011;32541;46.298;11.506;2023-03-16T09:27:32;1.07;;;0.60;;
46781;SDS011;32541;46.298;11.506;2023-03-16T09:29:59;1.30;;;0.33;;
46781;SDS011;32541;46.298;11.506;2023-03-16T09:32:26;1.83;;;1.07;;
46781;SDS011;32541;46.298;11.506;2023-03-16T09:34:52;1.93;;;0.70;;
46781;SDS011;32541;46.298;11.506;2023-03-16T09:37:19;1.00;;;0.70;;
46781;SDS011;32541;46.298;11.506;2023-03-16T09:39:45;2.60;;;1.00;;
46781;SDS011;32541;46.298;11.506;2023-03-16T09:42:13;1.30;;;0.60;;
46781;SDS011;32541;46.298;11.506;2023-03-16T09:47:38;0.90;;;0.45;;
46781;SDS011;32541;46.298;11.506;2023-03-16T09:50:07;6.20;;;2.97;;
46781;SDS011;32541;46.298;11.506;2023-03-16T09:57:41;0.60;;;0.43;;
46781;SDS011;32541;46.298;11.506;2023-03-16T10:05:22;0.98;;;0.50;;
46781;SDS011;32541;46.298;11.506;2023-03-16T10:08:01;1.27;;;0.40;;
46781;SDS011;32541;46.298;11.506;2023-03-16T10:10:58;1.17;;;0.30;;
46781;SDS011;32541;46.298;11.506;2023-03-16T10:16:20;1.13;;;0.70;;
46781;SDS011;32541;46.298;11.506;2023-03-16T10:18:52;0.95;;;0.40;;
46781;SDS011;32541;46.298;11.506;2023-03-16T10:21:25;0.38;;;0.30;;
46781;SDS011;32541;46.298;11.506;2023-03-16T10:23:52;1.13;;;0.40;;
46781;SDS011;32541;46.298;11.506;2023-03-16T10:26:24;0.45;;;0.40;;
46781;SDS011;32541;46.298;11.506;2023-03-16T10:28:57;0.50;;;0.30;;
46781;SDS011;32541;46.298;11.506;2023-03-16T10:31:25;3.88;;;0.60;;
46781;SDS011;32541;46.298;11.506;2023-03-16T10:33:53;1.33;;;0.73;;
46781;SDS011;32541;46.298;11.506;2023-03-16T10:36:30;1.42;;;0.68;;
46781;SDS011;32541;46.298;11.506;2023-03-16T10:41:35;1.27;;;0.57;;
46781;SDS011;32541;46.298;11.506;2023-03-16T10:44:10;1.00;;;0.50;;
46781;SDS011;32541;46.298;11.506;2023-03-16T10:49:24;2.67;;;0.57;;
46781;SDS011;32541;46.298;11.506;2023-03-16T10:52:03;1.10;;;0.60;;
46781;SDS011;32541;46.298;11.506;2023-03-16T10:54:33;0.63;;;0.40;;
46781;SDS011;32541;46.298;11.506;2023-03-16T10:57:11;2.33;;;1.92;;
46781;SDS011;32541;46.298;11.506;2023-03-16T11:02:38;1.02;;;0.50;;
46781;SDS011;32541;46.298;11.506;2023-03-16T11:05:11;0.95;;;0.60;;
46781;SDS011;32541;46.298;11.506;2023-03-16T11:07:47;3.40;;;1.75;;
46781;SDS011;32541;46.298;11.506;2023-03-16T11:15:24;1.10;;;0.60;;
46781;SDS011;32541;46.298;11.506;2023-03-16T11:17:51;1.13;;;0.40;;
46781;SDS011;32541;46.298;11.506;2023-03-16T11:20:21;1.48;;;0.35;;
46781;SDS011;32541;46.298;11.506;2023-03-16T11:22:50;0.57;;;0.40;;
46781;SDS011;32541;46.298;11.506;2023-03-16T11:28:14;0.70;;;0.40;;
46781;SDS011;32541;46.298;11.506;2023-03-16T11:30:59;2.72;;;0.57;;
46781;SDS011;32541;46.298;11.506;2023-03-16T11:33:32;1.20;;;0.80;;
46781;SDS011;32541;46.298;11.506;2023-03-16T11:36:13;1.40;;;0.57;;
46781;SDS011;32541;46.298;11.506;2023-03-16T11:39:02;3.90;;;1.00;;
46781;SDS011;32541;46.298;11.506;2023-03-16T11:44:41;1.17;;;0.50;;
46781;SDS011;32541;46.298;11.506;2023-03-16T11:52:33;1.33;;;0.73;;
46781;SDS011;32541;46.298;11.506;2023-03-16T12:14:13;0.75;;;0.43;;
46781;SDS011;32541;46.298;11.506;2023-03-16T12:17:03;1.67;;;0.70;;
46781;SDS011;32541;46.298;11.506;2023-03-16T12:22:32;0.93;;;0.40;;
46781;SDS011;32541;46.298;11.506;2023-03-16T12:25:11;0.38;;;0.32;;
46781;SDS011;32541;46.298;11.506;2023-03-16T12:27:42;1.35;;;0.55;;
46781;SDS011;32541;46.298;11.506;2023-03-16T12:36:03;1.03;;;0.50;;
46781;SDS011;32541;46.298;11.506;2023-03-16T12:44:02;2.75;;;0.60;;
46781;SDS011;32541;46.298;11.506;2023-03-16T12:49:37;2.08;;;0.95;;
46781;SDS011;32541;46.298;11.506;2023-03-16T12:52:07;0.70;;;0.32;;
46781;SDS011;32541;46.298;11.506;2023-03-16T12:54:34;0.55;;;0.40;;
46781;SDS011;32541;46.298;11.506;2023-03-16T12:57:00;1.48;;;0.43;;
46781;SDS011;32541;46.298;11.506;2023-03-16T12:59:41;2.13;;;0.40;;
46781;SDS011;32541;46.298;11.506;2023-03-16T13:02:14;4.22;;;0.80;;
46781;SDS011;32541;46.298;11.506;2023-03-16T13:05:33;3.00;;;0.50;;
46781;SDS011;32541;46.298;11.506;2023-03-16T13:07:48;1.70;;;0.55;;
46781;SDS011;32541;46.298;11.506;2023-03-16T13:10:15;4.60;;;0.60;;
46781;SDS011;32541;46.298;11.506;2023-03-16T13:12:42;2.22;;;0.60;;
46781;SDS011;32541;46.298;11.506;2023-03-16T13:17:47;1.90;;;0.50;;
46781;SDS011;32541;46.298;11.506;2023-03-16T13:20:28;1.23;;;0.52;;
46781;SDS011;32541;46.298;11.506;2023-03-16T13:28:30;2.22;;;0.80;;
46781;SDS011;32541;46.298;11.506;2023-03-16T13:30:59;1.10;;;0.60;;
46781;SDS011;32541;46.298;11.506;2023-03-16T13:33:26;0.93;;;0.50;;
46781;SDS011;32541;46.298;11.506;2023-03-16T13:35:55;1.63;;;0.90;;
46781;SDS011;32541;46.298;11.506;2023-03-16T13:38:23;0.52;;;0.50;;
46781;SDS011;32541;46.298;11.506;2023-03-16T13:40:52;1.15;;;0.68;;
46781;SDS011;32541;46.298;11.506;2023-03-16T13:43:25;1.98;;;0.60;;
46781;SDS011;32541;46.298;11.506;2023-03-16T13:46:11;1.60;;;0.60;;
46781;SDS011;32541;46.298;11.506;2023-03-16T13:48:41;1.48;;;0.65;;
46781;SDS011;32541;46.298;11.506;2023-03-16T13:51:09;1.52;;;0.60;;
46781;SDS011;32541;46.298;11.506;2023-03-16T13:56:06;1.35;;;0.65;;
46781;SDS011;32541;46.298;11.506;2023-03-16T13:58:37;0.80;;;0.68;;
46781;SDS011;32541;46.298;11.506;2023-03-16T14:01:10;1.13;;;0.75;;
46781;SDS011;32541;46.298;11.506;2023-03-16T14:03:44;1.15;;;0.50;;
46781;SDS011;32541;46.298;11.506;2023-03-16T14:06:23;3.42;;;0.88;;
46781;SDS011;32541;46.298;11.506;2023-03-16T14:08:54;3.60;;;0.88;;
46781;SDS011;32541;46.298;11.506;2023-03-16T14:11:24;2.72;;;0.63;;
46781;SDS011;32541;46.298;11.506;2023-03-16T14:13:51;0.70;;;0.47;;
46781;SDS011;32541;46.298;11.506;2023-03-16T14:16:19;0.57;;;0.40;;
46781;SDS011;32541;46.298;11.506;2023-03-16T14:18:50;1.55;;;0.93;;
46781;SDS011;32541;46.298;11.506;2023-03-16T14:21:30;2.22;;;0.90;;
46781;SDS011;32541;46.298;11.506;2023-03-16T14:26:43;0.82;;;0.60;;
46781;SDS011;32541;46.298;11.506;2023-03-16T14:29:13;1.52;;;1.23;;
46781;SDS011;32541;46.298;11.506;2023-03-16T14:31:50;2.45;;;0.60;;
46781;SDS011;32541;46.298;11.506;2023-03-16T14:34:25;1.15;;;0.60;;
46781;SDS011;32541;46.298;11.506;2023-03-16T14:36:51;1.08;;;0.70;;
46781;SDS011;32541;46.298;11.506;2023-03-16T14:39:20;1.10;;;0.47;;
46781;SDS011;32541;46.298;11.506;2023-03-16T14:41:51;0.95;;;0.60;;
46781;SDS011;32541;46.298;11.506;2023-03-16T14:44:20;1.45;;;0.90;;
46781;SDS011;32541;46.298;11.506;2023-03-16T14:46:49;1.65;;;0.80;;
46781;SDS011;32541;46.298;11.506;2023-03-16T14:49:33;0.77;;;0.50;;
46781;SDS011;32541;46.298;11.506;2023-03-16T14:52:03;2.08;;;0.90;;
46781;SDS011;32541;46.298;11.506;2023-03-16T14:54:32;1.73;;;0.90;;
46781;SDS011;32541;46.298;11.506;2023-03-16T14:57:02;2.65;;;1.23;;
46781;SDS011;32541;46.298;11.506;2023-03-16T14:59:30;2.13;;;0.80;;
46781;SDS011;32541;46.298;11.506;2023-03-16T15:01:56;5.50;;;1.15;;
46781;SDS011;32541;46.298;11.506;2023-03-16T15:04:27;1.40;;;0.82;;
46781;SDS011;32541;46.298;11.506;2023-03-16T15:06:56;1.80;;;0.95;;
46781;SDS011;32541;46.298;11.506;2023-03-16T15:09:35;1.88;;;1.08;;
46781;SDS011;32541;46.298;11.506;2023-03-16T15:12:03;2.45;;;1.25;;
46781;SDS011;32541;46.298;11.506;2023-03-16T15:14:37;2.03;;;1.13;;
46781;SDS011;32541;46.298;11.506;2023-03-16T15:17:21;1.30;;;0.88;;
46781;SDS011;32541;46.298;11.506;2023-03-16T15:19:46;1.85;;;1.13;;
46781;SDS011;32541;46.298;11.506;2023-03-16T15:22:14;2.28;;;1.08;;
46781;SDS011;32541;46.298;11.506;2023-03-16T15:24:43;1.67;;;1.02;;
46781;SDS011;32541;46.298;11.506;2023-03-16T15:27:16;1.52;;;1.02;;
46781;SDS011;32541;46.298;11.506;2023-03-16T15:29:44;2.25;;;0.98;;
46781;SDS011;32541;46.298;11.506;2023-03-16T15:32:13;3.67;;;0.93;;
46781;SDS011;32541;46.298;11.506;2023-03-16T15:34:42;2.90;;;1.00;;
46781;SDS011;32541;46.298;11.506;2023-03-16T15:37:16;1.70;;;0.82;;
46781;SDS011;32541;46.298;11.506;2023-03-16T15:39:43;5.72;;;1.20;;
46781;SDS011;32541;46.298;11.506;2023-03-16T15:42:14;1.98;;;0.93;;
46781;SDS011;32541;46.298;11.506;2023-03-16T15:44:41;2.20;;;0.95;;
46781;SDS011;32541;46.298;11.506;2023-03-16T15:47:07;5.05;;;1.00;;
46781;SDS011;32541;46.298;11.506;2023-03-16T15:49:33;2.33;;;1.23;;
46781;SDS011;32541;46.298;11.506;2023-03-16T15:51:59;3.83;;;1.00;;
46781;SDS011;32541;46.298;11.506;2023-03-16T15:54:25;1.67;;;1.02;;
46781;SDS011;32541;46.298;11.506;2023-03-16T15:56:51;2.38;;;1.55;;
46781;SDS011;32541;46.298;11.506;2023-03-16T15:59:16;2.65;;;1.17;;
46781;SDS011;32541;46.298;11.506;2023-03-16T16:01:43;2.92;;;1.23;;
46781;SDS011;32541;46.298;11.506;2023-03-16T16:04:14;2.67;;;1.10;;
46781;SDS011;32541;46.298;11.506;2023-03-16T16:09:12;4.82;;;1.17;;
46781;SDS011;32541;46.298;11.506;2023-03-16T16:11:39;1.20;;;0.75;;
46781;SDS011;32541;46.298;11.506;2023-03-16T16:14:08;1.65;;;1.10;;
46781;SDS011;32541;46.298;11.506;2023-03-16T16:16:38;1.80;;;0.90;;
46781;SDS011;32541;46.298;11.506;2023-03-16T16:19:07;8.70;;;1.52;;
46781;SDS011;32541;46.298;11.506;2023-03-16T16:21:36;1.67;;;1.23;;
46781;SDS011;32541;46.298;11.506;2023-03-16T16:24:02;2.00;;;1.10;;
46781;SDS011;32541;46.298;11.506;2023-03-16T16:26:36;9.18;;;4.10;;
46781;SDS011;32541;46.298;11.506;2023-03-16T16:29:39;6.88;;;2.92;;
46781;SDS011;32541;46.298;11.506;2023-03-16T16:31:59;3.13;;;0.98;;